This is the latest recevied weather packets stored in our database for station/object EB1GOD-1. If no packets are shown the sender has not sent any weather packets the latest 10 day(s).
| Time | Temp. | Humidity | Pressure | Rain* | Wind** | Luminosity | Snow |
|---|---|---|---|---|---|---|---|
| 1777607177 | 14.44° C | 87% | 1157.3 hPa | - | - | - | - |
| 1777606277 | 14.44° C | 86% | 1157.6 hPa | - | - | - | - |
| 1777605376 | 15° C | 83% | 1157.7 hPa | - | - | - | - |
| 1777604476 | 15° C | 83% | 1157.6 hPa | - | - | - | - |
| 1777603576 | 14.44° C | 84% | 1157.4 hPa | - | - | - | - |
| 1777602676 | 15° C | 81% | 1157.5 hPa | - | - | - | - |
| 1777601776 | 15° C | 81% | 1157.6 hPa | - | - | - | - |
| 1777600884 | 15° C | 83% | 1157.5 hPa | - | - | - | - |
| 1777599976 | 13.89° C | 85% | 1157.7 hPa | - | - | - | - |
| 1777599076 | 14.44° C | 82% | 1157.7 hPa | - | - | - | - |
| 1777598176 | 15.56° C | 78% | 1157.6 hPa | - | - | - | - |
| 1777597277 | 15.56° C | 78% | 1157.8 hPa | - | - | - | - |
| 1777596376 | 15.56° C | 77% | 1157.9 hPa | - | - | - | - |
| 1777595475 | 15° C | 80% | 1158 hPa | - | - | - | - |
| 1777594575 | 15.56° C | 76% | 1157.9 hPa | - | - | - | - |
| 1777593675 | 15.56° C | 77% | 1157.8 hPa | - | - | - | - |
| 1777592775 | 15.56° C | 77% | 1157.9 hPa | - | - | - | - |
| 1777591875 | 16.11° C | 75% | 1157.9 hPa | - | - | - | - |
| 1777590975 | 16.11° C | 75% | 1157.8 hPa | - | - | - | - |
| 1777590078 | 15.56° C | 74% | 1157.9 hPa | - | - | - | - |
| 1777589162 | 16.11° C | 74% | 1158 hPa | - | - | - | - |
| 1777588262 | 16.11° C | 73% | 1158 hPa | - | - | - | - |
| 1777587362 | 16.11° C | 73% | 1158 hPa | - | - | - | - |
| 1777586462 | 16.11° C | 74% | 1158 hPa | - | - | - | - |
| 1777585567 | 16.11° C | 72% | 1158 hPa | - | - | - | - |
* Rain since midnight (hover to see other rain measurements)
** Current wind speed in m/s (hover to see current wind gust speed)